sensor_id;sensor_type;location;lat;lon;timestamp;P1;durP1;ratioP1;P2;durP2;ratioP2
49103;SDS011;34915;52.926;11.116;2022-10-13T00:00:40;1.40;;;1.27;;
49103;SDS011;34915;52.926;11.116;2022-10-13T00:03:07;3.37;;;1.77;;
49103;SDS011;34915;52.926;11.116;2022-10-13T00:05:34;3.83;;;1.90;;
49103;SDS011;34915;52.926;11.116;2022-10-13T00:08:04;2.43;;;1.53;;
49103;SDS011;34915;52.926;11.116;2022-10-13T00:10:29;1.80;;;1.70;;
49103;SDS011;34915;52.926;11.116;2022-10-13T00:12:55;4.13;;;1.83;;
49103;SDS011;34915;52.926;11.116;2022-10-13T00:15:21;3.43;;;1.60;;
49103;SDS011;34915;52.926;11.116;2022-10-13T00:17:53;1.00;;;0.97;;
49103;SDS011;34915;52.926;11.116;2022-10-13T00:20:18;1.00;;;0.90;;
49103;SDS011;34915;52.926;11.116;2022-10-13T00:22:44;1.03;;;0.93;;
49103;SDS011;34915;52.926;11.116;2022-10-13T00:25:09;2.07;;;1.37;;
49103;SDS011;34915;52.926;11.116;2022-10-13T00:27:35;3.10;;;1.33;;
49103;SDS011;34915;52.926;11.116;2022-10-13T00:30:04;4.87;;;1.20;;
49103;SDS011;34915;52.926;11.116;2022-10-13T00:32:30;4.03;;;1.63;;
49103;SDS011;34915;52.926;11.116;2022-10-13T00:34:55;3.43;;;1.10;;
49103;SDS011;34915;52.926;11.116;2022-10-13T00:37:24;2.03;;;1.30;;
49103;SDS011;34915;52.926;11.116;2022-10-13T00:39:53;2.17;;;1.50;;
49103;SDS011;34915;52.926;11.116;2022-10-13T00:42:19;3.47;;;1.50;;
49103;SDS011;34915;52.926;11.116;2022-10-13T00:47:19;1.57;;;1.27;;
49103;SDS011;34915;52.926;11.116;2022-10-13T00:49:45;3.27;;;1.40;;
49103;SDS011;34915;52.926;11.116;2022-10-13T00:52:13;3.13;;;1.33;;
49103;SDS011;34915;52.926;11.116;2022-10-13T00:54:41;7.43;;;1.83;;
49103;SDS011;34915;52.926;11.116;2022-10-13T00:57:08;5.80;;;1.10;;
49103;SDS011;34915;52.926;11.116;2022-10-13T00:59:35;3.77;;;1.43;;
49103;SDS011;34915;52.926;11.116;2022-10-13T01:02:03;3.50;;;1.43;;
49103;SDS011;34915;52.926;11.116;2022-10-13T01:04:31;1.80;;;1.63;;
49103;SDS011;34915;52.926;11.116;2022-10-13T01:07:01;1.30;;;1.03;;
49103;SDS011;34915;52.926;11.116;2022-10-13T01:09:28;1.80;;;1.43;;
49103;SDS011;34915;52.926;11.116;2022-10-13T01:14:37;1.33;;;1.23;;
49103;SDS011;34915;52.926;11.116;2022-10-13T01:17:43;2.13;;;1.63;;
49103;SDS011;34915;52.926;11.116;2022-10-13T01:29:21;3.37;;;1.47;;
49103;SDS011;34915;52.926;11.116;2022-10-13T01:32:21;1.40;;;1.30;;
49103;SDS011;34915;52.926;11.116;2022-10-13T01:34:58;3.17;;;1.50;;
49103;SDS011;34915;52.926;11.116;2022-10-13T01:45:53;2.03;;;1.50;;
49103;SDS011;34915;52.926;11.116;2022-10-13T01:48:19;1.23;;;1.07;;
49103;SDS011;34915;52.926;11.116;2022-10-13T01:50:48;1.20;;;1.03;;
49103;SDS011;34915;52.926;11.116;2022-10-13T01:53:15;1.50;;;1.40;;
49103;SDS011;34915;52.926;11.116;2022-10-13T01:55:49;0.93;;;0.77;;
49103;SDS011;34915;52.926;11.116;2022-10-13T01:58:26;3.17;;;1.30;;
49103;SDS011;34915;52.926;11.116;2022-10-13T02:09:07;2.33;;;1.10;;
49103;SDS011;34915;52.926;11.116;2022-10-13T02:11:39;3.00;;;1.47;;
49103;SDS011;34915;52.926;11.116;2022-10-13T02:14:17;1.87;;;1.50;;
49103;SDS011;34915;52.926;11.116;2022-10-13T02:16:48;2.67;;;1.10;;
49103;SDS011;34915;52.926;11.116;2022-10-13T02:19:19;1.60;;;1.23;;
49103;SDS011;34915;52.926;11.116;2022-10-13T02:21:45;1.50;;;1.40;;
49103;SDS011;34915;52.926;11.116;2022-10-13T02:24:14;3.47;;;1.27;;
49103;SDS011;34915;52.926;11.116;2022-10-13T02:26:40;2.30;;;1.63;;
49103;SDS011;34915;52.926;11.116;2022-10-13T02:29:10;1.67;;;1.40;;
49103;SDS011;34915;52.926;11.116;2022-10-13T02:31:42;2.13;;;1.37;;
49103;SDS011;34915;52.926;11.116;2022-10-13T02:34:08;2.03;;;1.57;;
49103;SDS011;34915;52.926;11.116;2022-10-13T02:36:35;8.53;;;1.60;;
49103;SDS011;34915;52.926;11.116;2022-10-13T02:39:05;1.47;;;1.27;;
49103;SDS011;34915;52.926;11.116;2022-10-13T02:41:31;1.73;;;1.40;;
49103;SDS011;34915;52.926;11.116;2022-10-13T02:43:57;3.93;;;1.30;;
49103;SDS011;34915;52.926;11.116;2022-10-13T02:46:23;2.90;;;1.60;;
49103;SDS011;34915;52.926;11.116;2022-10-13T02:48:49;6.07;;;2.13;;
49103;SDS011;34915;52.926;11.116;2022-10-13T02:51:17;2.80;;;1.87;;
49103;SDS011;34915;52.926;11.116;2022-10-13T02:53:43;1.80;;;1.60;;
49103;SDS011;34915;52.926;11.116;2022-10-13T02:56:09;4.07;;;1.90;;
49103;SDS011;34915;52.926;11.116;2022-10-13T02:58:35;1.93;;;1.77;;
49103;SDS011;34915;52.926;11.116;2022-10-13T03:01:07;1.73;;;1.40;;
49103;SDS011;34915;52.926;11.116;2022-10-13T03:03:35;6.50;;;1.47;;
49103;SDS011;34915;52.926;11.116;2022-10-13T03:06:01;3.93;;;1.70;;
49103;SDS011;34915;52.926;11.116;2022-10-13T03:08:27;2.63;;;1.20;;
49103;SDS011;34915;52.926;11.116;2022-10-13T03:10:53;1.97;;;1.57;;
49103;SDS011;34915;52.926;11.116;2022-10-13T03:13:19;2.07;;;1.40;;
49103;SDS011;34915;52.926;11.116;2022-10-13T03:15:45;2.63;;;1.57;;
49103;SDS011;34915;52.926;11.116;2022-10-13T03:18:12;1.63;;;1.50;;
49103;SDS011;34915;52.926;11.116;2022-10-13T03:20:38;2.50;;;1.40;;
49103;SDS011;34915;52.926;11.116;2022-10-13T03:23:04;2.50;;;1.37;;
49103;SDS011;34915;52.926;11.116;2022-10-13T03:25:31;2.00;;;1.77;;
49103;SDS011;34915;52.926;11.116;2022-10-13T03:27:57;5.03;;;1.90;;
49103;SDS011;34915;52.926;11.116;2022-10-13T03:30:23;2.37;;;1.53;;
49103;SDS011;34915;52.926;11.116;2022-10-13T03:32:50;1.43;;;1.27;;
49103;SDS011;34915;52.926;11.116;2022-10-13T03:35:19;2.17;;;1.80;;
49103;SDS011;34915;52.926;11.116;2022-10-13T03:37:44;3.00;;;1.60;;
49103;SDS011;34915;52.926;11.116;2022-10-13T03:40:10;2.27;;;1.70;;
49103;SDS011;34915;52.926;11.116;2022-10-13T03:42:36;4.13;;;1.90;;
49103;SDS011;34915;52.926;11.116;2022-10-13T03:45:03;1.80;;;1.40;;
49103;SDS011;34915;52.926;11.116;2022-10-13T03:47:29;3.20;;;1.70;;
49103;SDS011;34915;52.926;11.116;2022-10-13T03:49:55;1.83;;;1.63;;
49103;SDS011;34915;52.926;11.116;2022-10-13T03:52:21;1.33;;;1.23;;
49103;SDS011;34915;52.926;11.116;2022-10-13T03:54:47;3.87;;;1.73;;
49103;SDS011;34915;52.926;11.116;2022-10-13T03:57:13;1.70;;;1.60;;
49103;SDS011;34915;52.926;11.116;2022-10-13T03:59:39;3.67;;;1.70;;
49103;SDS011;34915;52.926;11.116;2022-10-13T04:02:05;1.93;;;1.70;;
49103;SDS011;34915;52.926;11.116;2022-10-13T04:04:31;3.30;;;2.27;;
49103;SDS011;34915;52.926;11.116;2022-10-13T04:06:57;2.07;;;1.70;;
49103;SDS011;34915;52.926;11.116;2022-10-13T04:09:22;2.80;;;2.17;;
49103;SDS011;34915;52.926;11.116;2022-10-13T04:11:49;3.43;;;2.20;;
49103;SDS011;34915;52.926;11.116;2022-10-13T04:14:16;1.97;;;1.77;;
49103;SDS011;34915;52.926;11.116;2022-10-13T04:16:42;3.43;;;1.63;;
49103;SDS011;34915;52.926;11.116;2022-10-13T04:19:11;2.90;;;1.67;;
49103;SDS011;34915;52.926;11.116;2022-10-13T04:21:39;1.53;;;1.23;;
49103;SDS011;34915;52.926;11.116;2022-10-13T04:24:05;3.97;;;1.70;;
49103;SDS011;34915;52.926;11.116;2022-10-13T04:26:33;2.53;;;1.40;;
49103;SDS011;34915;52.926;11.116;2022-10-13T04:29:01;3.70;;;2.23;;
49103;SDS011;34915;52.926;11.116;2022-10-13T04:31:28;2.77;;;1.63;;
49103;SDS011;34915;52.926;11.116;2022-10-13T04:33:54;4.50;;;2.10;;
49103;SDS011;34915;52.926;11.116;2022-10-13T04:36:24;2.10;;;1.73;;
49103;SDS011;34915;52.926;11.116;2022-10-13T04:38:50;1.43;;;1.13;;
49103;SDS011;34915;52.926;11.116;2022-10-13T04:41:21;1.57;;;1.47;;
49103;SDS011;34915;52.926;11.116;2022-10-13T04:43:48;4.50;;;1.30;;
49103;SDS011;34915;52.926;11.116;2022-10-13T04:46:19;4.83;;;1.60;;
49103;SDS011;34915;52.926;11.116;2022-10-13T04:48:49;5.43;;;2.27;;
49103;SDS011;34915;52.926;11.116;2022-10-13T04:51:17;4.07;;;2.70;;
49103;SDS011;34915;52.926;11.116;2022-10-13T04:53:44;3.03;;;2.20;;
49103;SDS011;34915;52.926;11.116;2022-10-13T04:56:11;2.83;;;2.03;;
49103;SDS011;34915;52.926;11.116;2022-10-13T04:58:38;3.50;;;2.13;;
49103;SDS011;34915;52.926;11.116;2022-10-13T05:01:11;4.73;;;1.90;;
49103;SDS011;34915;52.926;11.116;2022-10-13T05:03:38;2.33;;;1.70;;
49103;SDS011;34915;52.926;11.116;2022-10-13T05:06:04;2.87;;;2.20;;
49103;SDS011;34915;52.926;11.116;2022-10-13T05:08:33;2.73;;;1.73;;
49103;SDS011;34915;52.926;11.116;2022-10-13T05:10:59;3.97;;;1.50;;
49103;SDS011;34915;52.926;11.116;2022-10-13T05:13:27;3.03;;;2.13;;
49103;SDS011;34915;52.926;11.116;2022-10-13T05:15:54;5.97;;;2.27;;
49103;SDS011;34915;52.926;11.116;2022-10-13T05:18:23;3.60;;;1.83;;
49103;SDS011;34915;52.926;11.116;2022-10-13T05:20:49;3.80;;;2.10;;
49103;SDS011;34915;52.926;11.116;2022-10-13T05:23:15;4.50;;;2.30;;
49103;SDS011;34915;52.926;11.116;2022-10-13T05:25:41;4.00;;;1.90;;
49103;SDS011;34915;52.926;11.116;2022-10-13T05:28:07;2.27;;;1.90;;
49103;SDS011;34915;52.926;11.116;2022-10-13T05:30:33;5.83;;;2.73;;
49103;SDS011;34915;52.926;11.116;2022-10-13T05:32:59;4.37;;;2.50;;
49103;SDS011;34915;52.926;11.116;2022-10-13T05:35:25;2.53;;;2.13;;
49103;SDS011;34915;52.926;11.116;2022-10-13T05:37:54;5.53;;;2.60;;
49103;SDS011;34915;52.926;11.116;2022-10-13T05:40:22;3.57;;;2.23;;
49103;SDS011;34915;52.926;11.116;2022-10-13T05:42:48;3.13;;;2.63;;
49103;SDS011;34915;52.926;11.116;2022-10-13T05:45:15;5.10;;;2.73;;
49103;SDS011;34915;52.926;11.116;2022-10-13T05:47:45;3.10;;;2.80;;
49103;SDS011;34915;52.926;11.116;2022-10-13T05:50:11;3.90;;;2.70;;
49103;SDS011;34915;52.926;11.116;2022-10-13T05:52:36;3.23;;;2.43;;
49103;SDS011;34915;52.926;11.116;2022-10-13T05:55:02;3.83;;;2.53;;
49103;SDS011;34915;52.926;11.116;2022-10-13T05:57:32;4.20;;;2.50;;
49103;SDS011;34915;52.926;11.116;2022-10-13T06:00:14;5.43;;;2.17;;
49103;SDS011;34915;52.926;11.116;2022-10-13T06:05:24;3.67;;;2.50;;
49103;SDS011;34915;52.926;11.116;2022-10-13T06:07:54;2.63;;;2.33;;
49103;SDS011;34915;52.926;11.116;2022-10-13T06:10:20;4.20;;;2.80;;
49103;SDS011;34915;52.926;11.116;2022-10-13T06:12:47;4.10;;;2.57;;
49103;SDS011;34915;52.926;11.116;2022-10-13T06:15:13;3.20;;;2.37;;
49103;SDS011;34915;52.926;11.116;2022-10-13T06:17:38;4.03;;;2.70;;
49103;SDS011;34915;52.926;11.116;2022-10-13T06:20:06;5.13;;;2.43;;
49103;SDS011;34915;52.926;11.116;2022-10-13T06:22:32;4.37;;;2.50;;
49103;SDS011;34915;52.926;11.116;2022-10-13T06:25:03;3.27;;;2.53;;
49103;SDS011;34915;52.926;11.116;2022-10-13T06:27:37;4.23;;;2.63;;
49103;SDS011;34915;52.926;11.116;2022-10-13T06:30:06;5.33;;;2.77;;
49103;SDS011;34915;52.926;11.116;2022-10-13T06:32:32;3.13;;;2.80;;
49103;SDS011;34915;52.926;11.116;2022-10-13T06:34:58;7.93;;;2.53;;
49103;SDS011;34915;52.926;11.116;2022-10-13T06:37:23;4.60;;;3.30;;
49103;SDS011;34915;52.926;11.116;2022-10-13T06:39:52;3.67;;;2.77;;
49103;SDS011;34915;52.926;11.116;2022-10-13T06:42:17;3.17;;;2.03;;
49103;SDS011;34915;52.926;11.116;2022-10-13T06:44:43;3.43;;;2.30;;
49103;SDS011;34915;52.926;11.116;2022-10-13T06:47:09;3.50;;;2.30;;
49103;SDS011;34915;52.926;11.116;2022-10-13T06:49:37;5.70;;;3.20;;
49103;SDS011;34915;52.926;11.116;2022-10-13T06:52:07;4.97;;;3.73;;
49103;SDS011;34915;52.926;11.116;2022-10-13T06:54:33;6.70;;;3.50;;
49103;SDS011;34915;52.926;11.116;2022-10-13T06:56:59;6.57;;;4.17;;
49103;SDS011;34915;52.926;11.116;2022-10-13T06:59:27;8.10;;;3.20;;
49103;SDS011;34915;52.926;11.116;2022-10-13T07:01:53;5.00;;;3.57;;
49103;SDS011;34915;52.926;11.116;2022-10-13T07:04:22;5.03;;;3.37;;
49103;SDS011;34915;52.926;11.116;2022-10-13T07:06:47;5.73;;;2.70;;
49103;SDS011;34915;52.926;11.116;2022-10-13T07:09:14;4.43;;;3.27;;
49103;SDS011;34915;52.926;11.116;2022-10-13T07:11:42;4.87;;;3.17;;
49103;SDS011;34915;52.926;11.116;2022-10-13T07:14:12;6.10;;;3.23;;
49103;SDS011;34915;52.926;11.116;2022-10-13T07:16:41;5.57;;;2.33;;
49103;SDS011;34915;52.926;11.116;2022-10-13T07:19:07;6.27;;;3.07;;
49103;SDS011;34915;52.926;11.116;2022-10-13T07:21:32;3.70;;;2.60;;
49103;SDS011;34915;52.926;11.116;2022-10-13T07:23:58;5.10;;;3.47;;
49103;SDS011;34915;52.926;11.116;2022-10-13T07:26:23;10.63;;;3.70;;
49103;SDS011;34915;52.926;11.116;2022-10-13T07:28:52;4.50;;;3.27;;
49103;SDS011;34915;52.926;11.116;2022-10-13T07:31:20;4.40;;;2.50;;
49103;SDS011;34915;52.926;11.116;2022-10-13T07:33:47;4.77;;;3.70;;
49103;SDS011;34915;52.926;11.116;2022-10-13T07:36:14;6.40;;;3.20;;
49103;SDS011;34915;52.926;11.116;2022-10-13T07:38:39;6.03;;;3.70;;
49103;SDS011;34915;52.926;11.116;2022-10-13T07:41:07;4.73;;;3.30;;
49103;SDS011;34915;52.926;11.116;2022-10-13T07:43:33;5.97;;;3.37;;
49103;SDS011;34915;52.926;11.116;2022-10-13T07:46:00;7.03;;;3.90;;
49103;SDS011;34915;52.926;11.116;2022-10-13T07:48:31;5.73;;;3.70;;
49103;SDS011;34915;52.926;11.116;2022-10-13T07:50:58;8.97;;;4.43;;
49103;SDS011;34915;52.926;11.116;2022-10-13T07:53:27;7.03;;;3.70;;
49103;SDS011;34915;52.926;11.116;2022-10-13T07:55:53;5.17;;;3.57;;
49103;SDS011;34915;52.926;11.116;2022-10-13T07:58:18;5.87;;;3.70;;
49103;SDS011;34915;52.926;11.116;2022-10-13T08:00:44;5.00;;;4.00;;
49103;SDS011;34915;52.926;11.116;2022-10-13T08:03:09;7.30;;;3.73;;
49103;SDS011;34915;52.926;11.116;2022-10-13T08:05:35;7.87;;;3.90;;
49103;SDS011;34915;52.926;11.116;2022-10-13T08:08:05;5.53;;;3.73;;
49103;SDS011;34915;52.926;11.116;2022-10-13T08:10:31;11.40;;;4.03;;
49103;SDS011;34915;52.926;11.116;2022-10-13T08:12:56;7.27;;;4.10;;
49103;SDS011;34915;52.926;11.116;2022-10-13T08:15:25;5.00;;;4.43;;
49103;SDS011;34915;52.926;11.116;2022-10-13T08:17:50;5.83;;;4.07;;
49103;SDS011;34915;52.926;11.116;2022-10-13T08:20:19;6.53;;;4.07;;
49103;SDS011;34915;52.926;11.116;2022-10-13T08:22:45;9.03;;;4.17;;
49103;SDS011;34915;52.926;11.116;2022-10-13T08:25:11;11.37;;;5.90;;
49103;SDS011;34915;52.926;11.116;2022-10-13T08:27:36;4.83;;;3.63;;
49103;SDS011;34915;52.926;11.116;2022-10-13T08:30:06;7.37;;;4.13;;
49103;SDS011;34915;52.926;11.116;2022-10-13T08:32:35;10.37;;;4.00;;
49103;SDS011;34915;52.926;11.116;2022-10-13T08:35:10;7.73;;;4.30;;
49103;SDS011;34915;52.926;11.116;2022-10-13T08:37:39;8.30;;;4.87;;
49103;SDS011;34915;52.926;11.116;2022-10-13T08:40:04;8.13;;;4.60;;
49103;SDS011;34915;52.926;11.116;2022-10-13T08:42:30;6.53;;;4.73;;
49103;SDS011;34915;52.926;11.116;2022-10-13T08:44:57;8.00;;;4.40;;
49103;SDS011;34915;52.926;11.116;2022-10-13T08:50:02;8.50;;;5.20;;
49103;SDS011;34915;52.926;11.116;2022-10-13T08:55:31;6.83;;;4.57;;
49103;SDS011;34915;52.926;11.116;2022-10-13T08:58:01;7.03;;;4.57;;
49103;SDS011;34915;52.926;11.116;2022-10-13T09:00:35;7.33;;;4.77;;
49103;SDS011;34915;52.926;11.116;2022-10-13T09:03:16;7.87;;;4.50;;
49103;SDS011;34915;52.926;11.116;2022-10-13T09:08:42;8.33;;;5.50;;
49103;SDS011;34915;52.926;11.116;2022-10-13T09:11:22;8.13;;;5.90;;
49103;SDS011;34915;52.926;11.116;2022-10-13T09:13:53;7.20;;;4.97;;
49103;SDS011;34915;52.926;11.116;2022-10-13T09:16:27;7.97;;;5.00;;
49103;SDS011;34915;52.926;11.116;2022-10-13T09:19:10;7.83;;;4.83;;
49103;SDS011;34915;52.926;11.116;2022-10-13T09:21:49;10.83;;;5.33;;
49103;SDS011;34915;52.926;11.116;2022-10-13T09:24:17;10.47;;;5.73;;
49103;SDS011;34915;52.926;11.116;2022-10-13T09:26:45;12.70;;;4.93;;
49103;SDS011;34915;52.926;11.116;2022-10-13T09:29:23;12.73;;;4.80;;
49103;SDS011;34915;52.926;11.116;2022-10-13T09:31:50;8.57;;;5.60;;
49103;SDS011;34915;52.926;11.116;2022-10-13T09:34:31;6.43;;;4.93;;
49103;SDS011;34915;52.926;11.116;2022-10-13T09:37:04;7.97;;;4.60;;
49103;SDS011;34915;52.926;11.116;2022-10-13T09:39:37;8.23;;;4.63;;
49103;SDS011;34915;52.926;11.116;2022-10-13T09:44:48;7.97;;;4.27;;
49103;SDS011;34915;52.926;11.116;2022-10-13T09:47:24;5.90;;;4.30;;
49103;SDS011;34915;52.926;11.116;2022-10-13T09:50:03;6.93;;;4.27;;
49103;SDS011;34915;52.926;11.116;2022-10-13T09:52:45;8.70;;;4.70;;
49103;SDS011;34915;52.926;11.116;2022-10-13T09:55:26;9.30;;;5.40;;
49103;SDS011;34915;52.926;11.116;2022-10-13T09:57:52;9.03;;;4.63;;
49103;SDS011;34915;52.926;11.116;2022-10-13T10:00:24;7.10;;;4.40;;
49103;SDS011;34915;52.926;11.116;2022-10-13T10:08:08;8.73;;;5.30;;
49103;SDS011;34915;52.926;11.116;2022-10-13T10:10:39;7.53;;;5.63;;
49103;SDS011;34915;52.926;11.116;2022-10-13T10:13:07;9.13;;;4.77;;
49103;SDS011;34915;52.926;11.116;2022-10-13T10:18:35;8.00;;;5.43;;
49103;SDS011;34915;52.926;11.116;2022-10-13T10:27:08;12.57;;;7.03;;
49103;SDS011;34915;52.926;11.116;2022-10-13T10:29:44;9.07;;;4.70;;
49103;SDS011;34915;52.926;11.116;2022-10-13T10:45:41;6.97;;;5.17;;
49103;SDS011;34915;52.926;11.116;2022-10-13T10:48:16;7.87;;;5.70;;
49103;SDS011;34915;52.926;11.116;2022-10-13T10:50:49;12.60;;;6.90;;
49103;SDS011;34915;52.926;11.116;2022-10-13T10:56:22;15.20;;;7.43;;
49103;SDS011;34915;52.926;11.116;2022-10-13T11:01:39;8.87;;;5.03;;
49103;SDS011;34915;52.926;11.116;2022-10-13T11:07:02;8.17;;;4.93;;
49103;SDS011;34915;52.926;11.116;2022-10-13T11:15:13;8.70;;;6.57;;
49103;SDS011;34915;52.926;11.116;2022-10-13T11:17:40;9.30;;;5.20;;
49103;SDS011;34915;52.926;11.116;2022-10-13T11:22:42;6.50;;;4.37;;
49103;SDS011;34915;52.926;11.116;2022-10-13T11:55:01;8.67;;;4.03;;
49103;SDS011;34915;52.926;11.116;2022-10-13T11:57:42;8.03;;;4.07;;
49103;SDS011;34915;52.926;11.116;2022-10-13T12:00:18;5.27;;;3.77;;
49103;SDS011;34915;52.926;11.116;2022-10-13T12:02:48;6.70;;;3.83;;
49103;SDS011;34915;52.926;11.116;2022-10-13T12:05:19;7.17;;;3.97;;
49103;SDS011;34915;52.926;11.116;2022-10-13T12:07:50;7.23;;;4.70;;
49103;SDS011;34915;52.926;11.116;2022-10-13T12:10:36;4.57;;;3.50;;
49103;SDS011;34915;52.926;11.116;2022-10-13T12:13:02;9.60;;;4.03;;
49103;SDS011;34915;52.926;11.116;2022-10-13T12:17:59;6.20;;;3.80;;
49103;SDS011;34915;52.926;11.116;2022-10-13T12:20:26;4.53;;;4.03;;
49103;SDS011;34915;52.926;11.116;2022-10-13T12:22:56;23.83;;;15.53;;
49103;SDS011;34915;52.926;11.116;2022-10-13T12:25:26;5.27;;;4.57;;
49103;SDS011;34915;52.926;11.116;2022-10-13T12:27:55;6.07;;;3.30;;
49103;SDS011;34915;52.926;11.116;2022-10-13T12:32:55;6.20;;;5.20;;
49103;SDS011;34915;52.926;11.116;2022-10-13T12:35:26;6.80;;;4.20;;
49103;SDS011;34915;52.926;11.116;2022-10-13T12:37:54;5.57;;;3.17;;
49103;SDS011;34915;52.926;11.116;2022-10-13T12:40:21;3.83;;;2.60;;
49103;SDS011;34915;52.926;11.116;2022-10-13T12:42:51;4.93;;;3.27;;
49103;SDS011;34915;52.926;11.116;2022-10-13T12:45:19;4.00;;;2.80;;
49103;SDS011;34915;52.926;11.116;2022-10-13T12:47:52;4.13;;;3.17;;
49103;SDS011;34915;52.926;11.116;2022-10-13T12:55:44;5.10;;;3.13;;
49103;SDS011;34915;52.926;11.116;2022-10-13T13:03:42;4.07;;;2.80;;
49103;SDS011;34915;52.926;11.116;2022-10-13T13:08:37;4.97;;;2.77;;
49103;SDS011;34915;52.926;11.116;2022-10-13T13:11:04;2.83;;;2.50;;
49103;SDS011;34915;52.926;11.116;2022-10-13T13:13:34;2.80;;;2.40;;
49103;SDS011;34915;52.926;11.116;2022-10-13T13:18:46;6.57;;;2.87;;
49103;SDS011;34915;52.926;11.116;2022-10-13T13:21:14;3.63;;;2.83;;
49103;SDS011;34915;52.926;11.116;2022-10-13T13:23:45;2.90;;;2.30;;
49103;SDS011;34915;52.926;11.116;2022-10-13T13:28:41;3.80;;;2.10;;
49103;SDS011;34915;52.926;11.116;2022-10-13T13:31:11;3.53;;;1.90;;
49103;SDS011;34915;52.926;11.116;2022-10-13T13:33:38;2.37;;;1.80;;
49103;SDS011;34915;52.926;11.116;2022-10-13T13:36:07;3.37;;;1.80;;
49103;SDS011;34915;52.926;11.116;2022-10-13T13:38:47;3.23;;;2.57;;
49103;SDS011;34915;52.926;11.116;2022-10-13T13:41:16;3.33;;;2.10;;
49103;SDS011;34915;52.926;11.116;2022-10-13T13:43:42;2.90;;;1.67;;
49103;SDS011;34915;52.926;11.116;2022-10-13T13:46:14;2.30;;;1.83;;
49103;SDS011;34915;52.926;11.116;2022-10-13T13:48:41;3.27;;;1.77;;
49103;SDS011;34915;52.926;11.116;2022-10-13T13:51:10;2.20;;;2.00;;
49103;SDS011;34915;52.926;11.116;2022-10-13T13:53:35;3.23;;;2.20;;
49103;SDS011;34915;52.926;11.116;2022-10-13T13:56:04;2.43;;;2.20;;
49103;SDS011;34915;52.926;11.116;2022-10-13T13:58:33;2.60;;;2.13;;
49103;SDS011;34915;52.926;11.116;2022-10-13T14:01:03;2.73;;;2.40;;
49103;SDS011;34915;52.926;11.116;2022-10-13T14:03:31;4.20;;;2.33;;
49103;SDS011;34915;52.926;11.116;2022-10-13T14:05:57;3.07;;;1.90;;
49103;SDS011;34915;52.926;11.116;2022-10-13T14:08:22;3.50;;;1.93;;
49103;SDS011;34915;52.926;11.116;2022-10-13T14:10:48;4.23;;;2.23;;
49103;SDS011;34915;52.926;11.116;2022-10-13T14:13:13;3.97;;;2.20;;
49103;SDS011;34915;52.926;11.116;2022-10-13T14:15:42;3.17;;;2.07;;
49103;SDS011;34915;52.926;11.116;2022-10-13T14:18:08;2.80;;;2.30;;
49103;SDS011;34915;52.926;11.116;2022-10-13T14:20:33;2.03;;;1.83;;
49103;SDS011;34915;52.926;11.116;2022-10-13T14:22:59;2.90;;;2.47;;
49103;SDS011;34915;52.926;11.116;2022-10-13T14:25:24;2.63;;;2.20;;
49103;SDS011;34915;52.926;11.116;2022-10-13T14:27:53;2.97;;;2.07;;
49103;SDS011;34915;52.926;11.116;2022-10-13T14:30:18;3.47;;;2.30;;
49103;SDS011;34915;52.926;11.116;2022-10-13T14:32:44;2.77;;;2.10;;
49103;SDS011;34915;52.926;11.116;2022-10-13T14:35:09;4.10;;;1.53;;
49103;SDS011;34915;52.926;11.116;2022-10-13T14:37:35;2.23;;;2.00;;
49103;SDS011;34915;52.926;11.116;2022-10-13T14:40:01;3.73;;;2.00;;
49103;SDS011;34915;52.926;11.116;2022-10-13T14:42:29;2.53;;;1.70;;
49103;SDS011;34915;52.926;11.116;2022-10-13T14:44:58;3.87;;;1.90;;
49103;SDS011;34915;52.926;11.116;2022-10-13T14:47:27;4.43;;;1.33;;
49103;SDS011;34915;52.926;11.116;2022-10-13T14:49:52;4.37;;;2.10;;
49103;SDS011;34915;52.926;11.116;2022-10-13T14:52:18;1.50;;;1.30;;
49103;SDS011;34915;52.926;11.116;2022-10-13T14:54:43;1.80;;;1.63;;
49103;SDS011;34915;52.926;11.116;2022-10-13T14:57:09;3.87;;;2.00;;
49103;SDS011;34915;52.926;11.116;2022-10-13T14:59:42;2.13;;;1.80;;
49103;SDS011;34915;52.926;11.116;2022-10-13T15:02:09;1.70;;;1.60;;
49103;SDS011;34915;52.926;11.116;2022-10-13T15:04:35;2.23;;;2.03;;
49103;SDS011;34915;52.926;11.116;2022-10-13T15:07:01;1.50;;;1.30;;
49103;SDS011;34915;52.926;11.116;2022-10-13T15:09:29;2.40;;;2.03;;
49103;SDS011;34915;52.926;11.116;2022-10-13T15:11:58;3.27;;;1.77;;
49103;SDS011;34915;52.926;11.116;2022-10-13T15:14:27;2.20;;;1.77;;
49103;SDS011;34915;52.926;11.116;2022-10-13T15:16:55;4.50;;;1.47;;
49103;SDS011;34915;52.926;11.116;2022-10-13T15:19:24;2.90;;;1.93;;
49103;SDS011;34915;52.926;11.116;2022-10-13T15:21:50;9.03;;;3.30;;
49103;SDS011;34915;52.926;11.116;2022-10-13T15:24:16;4.50;;;3.80;;
49103;SDS011;34915;52.926;11.116;2022-10-13T15:26:44;5.00;;;3.67;;
49103;SDS011;34915;52.926;11.116;2022-10-13T15:29:13;4.03;;;2.60;;
49103;SDS011;34915;52.926;11.116;2022-10-13T15:31:38;6.00;;;5.40;;
49103;SDS011;34915;52.926;11.116;2022-10-13T15:34:04;9.27;;;6.00;;
49103;SDS011;34915;52.926;11.116;2022-10-13T15:36:29;12.20;;;7.80;;
49103;SDS011;34915;52.926;11.116;2022-10-13T15:38:59;10.57;;;7.13;;
49103;SDS011;34915;52.926;11.116;2022-10-13T15:41:25;7.27;;;5.57;;
49103;SDS011;34915;52.926;11.116;2022-10-13T15:43:53;5.33;;;4.70;;
49103;SDS011;34915;52.926;11.116;2022-10-13T15:46:22;6.83;;;4.40;;
49103;SDS011;34915;52.926;11.116;2022-10-13T15:48:53;5.80;;;3.40;;
49103;SDS011;34915;52.926;11.116;2022-10-13T15:51:25;7.47;;;4.50;;
49103;SDS011;34915;52.926;11.116;2022-10-13T15:53:54;6.30;;;4.17;;
49103;SDS011;34915;52.926;11.116;2022-10-13T15:56:20;5.20;;;2.70;;
49103;SDS011;34915;52.926;11.116;2022-10-13T15:58:45;4.30;;;3.00;;
49103;SDS011;34915;52.926;11.116;2022-10-13T16:01:11;2.70;;;2.00;;
49103;SDS011;34915;52.926;11.116;2022-10-13T16:03:38;1.70;;;1.60;;
49103;SDS011;34915;52.926;11.116;2022-10-13T16:06:05;1.93;;;1.70;;
49103;SDS011;34915;52.926;11.116;2022-10-13T16:08:35;1.90;;;1.80;;
49103;SDS011;34915;52.926;11.116;2022-10-13T16:11:09;2.47;;;2.20;;
49103;SDS011;34915;52.926;11.116;2022-10-13T16:13:36;2.43;;;1.70;;
49103;SDS011;34915;52.926;11.116;2022-10-13T16:16:02;2.10;;;1.90;;
49103;SDS011;34915;52.926;11.116;2022-10-13T16:18:32;2.37;;;1.80;;
49103;SDS011;34915;52.926;11.116;2022-10-13T16:20:59;2.40;;;2.20;;
49103;SDS011;34915;52.926;11.116;2022-10-13T16:23:32;2.80;;;2.20;;
49103;SDS011;34915;52.926;11.116;2022-10-13T16:26:00;3.40;;;2.17;;
49103;SDS011;34915;52.926;11.116;2022-10-13T16:28:29;1.97;;;1.67;;
49103;SDS011;34915;52.926;11.116;2022-10-13T16:30:55;3.67;;;1.80;;
49103;SDS011;34915;52.926;11.116;2022-10-13T16:33:20;5.60;;;1.87;;
49103;SDS011;34915;52.926;11.116;2022-10-13T16:35:49;3.23;;;1.93;;
49103;SDS011;34915;52.926;11.116;2022-10-13T16:38:17;3.70;;;2.07;;
49103;SDS011;34915;52.926;11.116;2022-10-13T16:40:43;2.10;;;1.87;;
49103;SDS011;34915;52.926;11.116;2022-10-13T16:43:11;2.97;;;1.97;;
49103;SDS011;34915;52.926;11.116;2022-10-13T16:45:40;2.73;;;2.23;;
49103;SDS011;34915;52.926;11.116;2022-10-13T16:48:06;4.00;;;2.60;;
49103;SDS011;34915;52.926;11.116;2022-10-13T16:50:31;3.37;;;2.10;;
49103;SDS011;34915;52.926;11.116;2022-10-13T16:52:57;2.17;;;1.87;;
49103;SDS011;34915;52.926;11.116;2022-10-13T16:55:23;4.70;;;2.23;;
49103;SDS011;34915;52.926;11.116;2022-10-13T16:57:50;3.10;;;2.20;;
49103;SDS011;34915;52.926;11.116;2022-10-13T17:00:16;4.97;;;2.50;;
49103;SDS011;34915;52.926;11.116;2022-10-13T17:02:42;4.47;;;2.57;;